HEAX/ALY METAR and TAF weather

Enter ICAO airport designator
Station Type Date Time Source
HEAX METAR 2020/01/28 20:00 UTC NOAA

HEAX 282000Z 29012KT 9999 SCT020 15/12 Q1020 RESHRA NOSIG


Station Type Date Time Source
HEAX Decoded METAR 2020/01/28 20:00 UTC NOAA

Alexandria / Nouzha, Egypt (HEAX) 31-12N 029-57E 7M
Jan 28, 2020 - 03:00 PM EST / 2020.01.28 2000 UTC
Wind: from the WNW (290 degrees) at 14 MPH (12 KT):0
Visibility: greater than 7 mile(s):0
Sky conditions: partly cloudy
Temperature: 59 F (15 C)
Dew Point: 53 F (12 C)
Relative Humidity: 82%
Pressure (altimeter): 30.12 in. Hg (1020 hPa)
ob: HEAX 282000Z 29012KT 9999 SCT020 15/12 Q1020 RESHRA NOSIG
cycle: 20

Station Type Date Time Source
HEAX TAF 2020/01/28 18:45 UTC NOAA

TAF HEAX 281700Z 2818/2924 30010KT 9999 FEW020

Example: see airport list